Hauptseite
METAR-TAF:

METAR-TAF

Flughäfen :

Flughafen Bern-Belp

Bern, Schweiz

Breite: 46-55N, Länge: 007-30E, Höhe: 505 m

Beobachtung

Neuester Wetterbericht von vor 40 Minuten, um 20:20 UTC
Wind 2 kt aus Ost/Südost
Temperatur -2°C
Luftfeuchtigkeit 86%
Luftdruck 1018 hPa
Sichtweite: 9000 m

METAR: LSZB 152020Z AUTO 12002KT 9000 NCD M02/M04 Q1018

Zeit: 22:00 (21:00 UTC)

Prognose

Neuester Wetterbericht von vor 6 Stunden und 35 Minuten, um 14:25 UTC
Gültige Prognose vom 15 um 15 UTC bis 15 um 24 UTC
Wind 3 kt aus unterschiedlichen Richtungen
Sichtweite: 7000 m
Leicht bewölkt in der Höhe von 2000 ft
Durchbrochene Bewölkung in der Höhe von 2500 ft
Zeitweise
vom 15 um 15 UTC bis 15 um 18 UTC
Sichtweite 10 km oder mehr
keine Wolken unter 1500 m und keine Kumulonimbus oder Gewitterwolken

TAF: LSZB 151425Z 1515/1524 VRB03KT 7000 FEW020 BKN025 TEMPO 1515/1518 CAVOK

Wetterbeobachtungen und Prognosen von mehr als 4000 Flughäfen (METAR und TAF Bericht).

Die verfügbaren Stationen werden durch gelbe und rote Markierungen auf der Karte dargestellt.

Führen Sie die Maus auf sie, um den Namen der Station zu sehen.

Darauf klicken, um die Beobachtung von Wetterbeobachtungen und Prognosen zu sehen.

Um die Karte zu ändern : klicken Sie auf den grünen Tasten mit einem schwarzen Kreuz Zum Vergrößern, auf den grünen Button mit einem Gedankenstrich zu verkleinern, oder auf die grünen Pfeile für benachbarte Karten.


METAR-TAF: